Broadwell, Illinois
Current Conditions -  °F | °C
As of 11:52 PM on Tuesday 21 Oct 2014 (Local Time) from KSPI Reporting Station
Clear Clear  
Wind Chill:   Ceiling: Unl
Heat Index:   Visibility: 10mi
Dew Point:   Wind: 5mph
Humidity: 82%   Direction: 70°ENE
Pressure: 30.24"   Gusts: NA
Location:  39.9935°N, 89.4758°W
Report Text: KSPI 220452Z AUTO 07004KT 10SM CLR 07/04 A3024 RMK AO2 SLP241 T00670039
Loading
Personal Weather Stations






























Interactive Weather Map
Tropical Storm Tracking
New forecast layout! Learn more

10-Day Weather Forecast

Advertisements
Track Severe Weather on mobile